Latest Weather Observations for Cowra

IDN60801

Issued at 5:42 pm EST Thursday 18 July 2019 (issued every 10 minutes, with the page automatically refreshed every 10 minutes)

About weather observations | Map of weather stations | Latest weather observations for NSW | Other Formats
Station Details ID: 065111 Name: COWRA AIRPORT AWS Lat: -33.84 Lon: 148.65 Height: 300.4 m
Data from the previous 72 hours. | See also: Recent months at Cowra
Date/Time
EST
Temp
°C
App
Temp
°C
Dew
Point
°C
Rel
Hum
%
Delta-T
°C
Wind Press
QNH
hPa
Press
MSL
hPa
Rain since
9am
mm
Dir  Spd
km/h
Gust
km/h
Spd
kts
Gust
kts
18/05:30pm 8.4 5.2 3.1 69 2.3 S 9 11 5 6 1019.5 1020.0 0.0
18/05:00pm 9.8 6.7 3.5 65 2.8 SSW 9 11 5 6 1019.5 1020.0 0.0
18/04:30pm 11.2 6.9 3.5 59 3.5 SW 15 20 8 11 1019.5 1020.0 0.0
18/04:00pm 11.7 6.7 3.7 58 3.6 SSW 19 26 10 14 1019.3 1019.8 0.0
18/03:30pm 12.2 6.9 3.2 54 4.0 SW 20 30 11 16 1019.4 1019.9 0.0
18/03:00pm 12.4 7.1 3.1 53 4.2 WSW 20 26 11 14 1019.2 1019.7 0.0
18/02:30pm 12.4 6.8 3.6 55 4.0 WSW 22 28 12 15 1019.1 1019.6 0.0
18/02:00pm 11.9 7.3 3.7 57 3.7 WSW 17 24 9 13 1019.0 1019.5 0.0
18/01:30pm 12.2 7.1 4.2 58 3.7 SW 20 28 11 15 1018.9 1019.4 0.0
18/01:00pm 12.1 7.2 4.3 59 3.6 SW 19 26 10 14 1018.9 1019.4 0.0
18/12:30pm 11.9 6.8 4.2 59 3.5 SW 20 28 11 15 1019.5 1020.0 0.0
18/12:00pm 11.5 7.7 4.0 60 3.4 SW 13 32 7 17 1019.5 1020.0 0.0
18/11:30am 11.6 7.6 4.8 63 3.1 WSW 15 22 8 12 1019.7 1020.2 0.0
18/11:00am 11.6 7.7 5.3 65 2.9 WSW 15 19 8 10 1019.8 1020.3 0.0
18/10:30am 10.5 7.6 4.9 68 2.6 WSW 9 17 5 9 1019.6 1020.1 0.0
18/10:00am 10.8 6.8 5.1 68 2.6 W 15 20 8 11 1019.7 1020.2 0.0
18/09:30am 10.1 5.7 4.9 70 2.4 W 17 22 9 12 1019.4 1019.9 0.0
18/09:00am 9.9 6.5 5.9 76 1.9 W 13 17 7 9 1019.3 1019.8 0.0
18/08:30am 9.2 5.6 6.8 85 1.1 WSW 15 19 8 10 1019.1 1019.6 0.0
18/08:00am 8.2 5.1 7.3 94 0.4 WSW 13 17 7 9 1019.6 1020.1 0.0
18/07:30am 8.1 3.8 7.0 93 0.5 W 19 24 10 13 1019.5 1020.0 0.0
18/07:00am 8.4 5.2 7.0 91 0.7 SW 13 17 7 9 1019.3 1019.8 0.0
18/06:30am 8.4 5.7 7.2 92 0.6 WSW 11 17 6 9 1018.9 1019.4 0.0
18/06:00am 8.3 5.2 7.4 94 0.4 WSW 13 17 7 9 1018.4 1018.9 0.0
18/05:30am 8.5 5.1 7.6 94 0.4 W 15 20 8 11 1018.1 1018.6 0.0
18/05:00am 8.5 6.2 7.6 94 0.4 W 9 13 5 7 1017.8 1018.3 0.0
18/04:30am 8.7 4.5 7.3 91 0.7 WSW 19 24 10 13 1017.7 1018.2 0.0
18/04:00am 9.1 6.0 7.2 88 0.9 WSW 13 20 7 11 1017.8 1018.3 0.0
18/03:30am 8.6 6.1 6.4 86 1.0 NNW 9 11 5 6 1017.8 1018.3 0.0
18/03:00am 8.7 5.3 6.0 83 1.3 NNE 13 15 7 8 1017.8 1018.3 0.0
18/02:30am 7.9 5.7 5.4 84 1.1 ENE 6 7 3 4 1018.1 1018.6 0.0
18/02:00am 6.8 4.5 4.6 86 1.0 NNE 6 7 3 4 1018.0 1018.5 0.0
18/01:30am 7.8 5.5 4.6 80 1.4 WNW 6 9 3 5 1018.0 1018.5 0.0
18/01:00am 8.0 4.3 4.2 77 1.7 WNW 13 26 7 14 1018.1 1018.6 0.0
18/12:30am 8.6 5.6 4.0 73 2.0 NW 9 22 5 12 1018.2 1018.7 0.0
18/12:00am 8.6 4.8 3.8 72 2.1 WNW 13 17 7 9 1018.2 1018.7 0.0
 
Date/Time
EST
Temp
°C
App
Temp
°C
Dew
Point
°C
Rel
Hum
%
Delta-T
°C
Wind Press
QNH
hPa
Press
MSL
hPa
Rain since
9am
mm
Dir  Spd
km/h
Gust
km/h
Spd
kts
Gust
kts
17/11:30pm 8.4 4.1 3.5 71 2.1 NW 15 20 8 11 1018.2 1018.7 0.0
17/11:00pm 8.3 4.8 3.6 72 2.1 NW 11 15 6 8 1018.4 1018.9 0.0
17/10:30pm 7.9 4.0 3.4 73 2.0 NNW 13 17 7 9 1018.3 1018.8 0.0
17/10:00pm 8.5 4.7 3.8 72 2.1 NNW 13 17 7 9 1018.4 1018.9 0.0
17/09:30pm 8.5 4.7 3.8 72 2.1 NNW 13 17 7 9 1018.7 1019.2 0.0
17/09:00pm 8.6 4.7 3.6 71 2.2 NNW 13 17 7 9 1018.8 1019.3 0.0
17/08:30pm 9.0 4.7 3.2 67 2.5 NNW 15 19 8 10 1018.9 1019.4 0.0
17/08:00pm 8.7 5.2 3.3 69 2.4 NNW 11 15 6 8 1019.1 1019.6 0.0
17/07:30pm 8.7 5.1 3.1 68 2.4 N 11 13 6 7 1019.2 1019.7 0.0
17/07:00pm 8.4 5.6 3.1 69 2.3 NNW 7 11 4 6 1019.1 1019.6 0.0
17/06:30pm 8.9 7.4 2.9 66 2.6 CALM 0 0 0 0 1019.0 1019.5 0.0
17/06:00pm 9.4 5.8 3.2 65 2.7 SW 11 15 6 8 1019.1 1019.6 0.0
17/05:30pm 9.7 5.0 3.4 65 2.8 WSW 17 22 9 12 1019.0 1019.5 0.0
17/05:00pm 10.2 4.4 2.3 58 3.4 WSW 22 30 12 16 1018.6 1019.1 0.0
17/04:30pm 10.8 5.4 2.4 56 3.7 W 20 26 11 14 1018.6 1019.1 0.0
17/04:00pm 11.1 5.1 3.2 58 3.5 W 24 30 13 16 1018.3 1018.8 0.0
17/03:30pm 11.6 7.1 4.1 60 3.4 WSW 17 26 9 14 1018.4 1018.9 0.0
17/03:00pm 11.6 6.5 4.1 60 3.4 WSW 20 24 11 13 1018.6 1019.1 0.0
17/02:30pm 11.7 6.7 4.4 61 3.4 W 20 24 11 13 1018.7 1019.2 0.0
17/02:00pm 12.8 8.6 5.5 61 3.5 WNW 17 28 9 15 1018.7 1019.2 0.0
17/01:30pm 12.4 8.8 5.1 61 3.4 WNW 13 20 7 11 1019.0 1019.5 0.0
17/01:00pm 11.7 8.7 5.8 67 2.8 WSW 11 15 6 8 1019.4 1019.9 0.0
17/12:30pm 11.0 8.8 6.4 73 2.2 W 7 17 4 9 1020.2 1020.8 0.0
17/12:00pm 10.5 8.4 6.5 76 1.9 NNW 7 13 4 7 1021.0 1021.5 0.0
17/11:30am 10.2 7.4 6.9 80 1.6 NNW 11 13 6 7 1021.5 1022.0 0.0
17/11:00am 9.9 7.2 7.3 84 1.3 N 11 13 6 7 1021.8 1022.3 0.0
17/10:30am 9.5 7.3 7.8 89 0.8 NNW 9 11 5 6 1022.3 1022.8 0.0
17/10:00am 9.0 6.8 7.8 92 0.6 N 9 13 5 7 1022.4 1022.9 0.0
17/09:30am 8.5 5.9 7.7 95 0.4 N 11 11 6 6 1022.5 1023.0 0.0
17/09:00am 7.9 5.3 7.8 99 0.0 N 11 13 6 7 1022.6 1023.1 0.0
17/08:30am 7.4 5.4 7.3 99 0.0 NNW 7 9 4 5 1022.5 1023.0 0.0
17/08:00am 6.8 6.0 6.7 99 0.0 CALM 0 0 0 0 1022.3 1022.8 0.0
17/07:30am 6.5 4.5 6.4 99 0.0 N 6 6 3 3 1022.3 1022.8 0.0
17/07:00am 6.5 4.3 6.4 99 0.0 N 7 9 4 5 1022.0 1022.5 0.0
17/06:30am 6.3 4.1 6.2 99 0.0 NNW 7 9 4 5 1021.8 1022.3 0.0
17/06:00am 6.3 4.3 6.2 99 0.0 N 6 9 3 5 1021.6 1022.1 0.0
17/05:30am 6.4 5.5 6.1 98 0.1 CALM 0 0 0 0 1021.7 1022.2 0.0
17/05:00am 7.1 6.4 6.8 98 0.1 CALM 0 0 0 0 1021.7 1022.2 0.0
17/04:30am 6.7 5.9 6.6 99 0.0 CALM 0 0 0 0 1022.0 1022.5 0.0
17/04:00am 6.1 5.1 5.5 96 0.3 CALM 0 0 0 0 1022.1 1022.6 0.0
17/03:30am 7.1 6.4 7.0 99 0.0 CALM 0 0 0 0 1022.3 1022.8 0.0
17/03:00am 6.8 6.0 6.7 99 0.0 CALM 0 0 0 0 1022.6 1023.1 0.0
17/02:30am 6.3 4.7 6.2 99 0.0 SSW 4 7 2 4 1022.8 1023.3 0.0
17/02:00am 6.3 5.4 6.0 98 0.1 CALM 0 7 0 4 1022.9 1023.4 0.0
17/01:30am 5.7 4.5 4.7 93 0.4 CALM 0 0 0 0 1023.0 1023.6 0.0
17/01:00am 6.2 5.0 4.7 90 0.7 CALM 0 0 0 0 1023.1 1023.7 0.0
17/12:30am 7.5 6.5 5.6 88 0.9 CALM 0 0 0 0 1023.4 1024.0 0.0
17/12:00am 8.2 3.6 5.8 85 1.1 SW 19 20 10 11 1023.5 1024.1 0.0
 
Date/Time
EST
Temp
°C
App
Temp
°C
Dew
Point
°C
Rel
Hum
%
Delta-T
°C
Wind Press
QNH
hPa
Press
MSL
hPa
Rain since
9am
mm
Dir  Spd
km/h
Gust
km/h
Spd
kts
Gust
kts
16/11:30pm 9.0 4.8 5.6 79 1.6 SW 17 22 9 12 1023.4 1024.0 0.0
16/11:00pm 9.7 5.1 5.7 76 1.9 WSW 19 24 10 13 1023.3 1023.9 0.0
16/10:30pm 9.7 5.9 5.7 76 1.9 SW 15 19 8 10 1023.7 1024.3 0.0
16/10:00pm 9.8 5.6 5.6 75 1.9 WSW 17 20 9 11 1023.6 1024.2 0.0
16/09:30pm 9.8 7.1 5.4 74 2.0 WSW 9 13 5 7 1023.7 1024.3 0.0
16/09:00pm 10.1 5.8 5.1 71 2.3 W 17 24 9 13 1023.4 1024.0 0.0
16/08:30pm 9.4 8.0 5.4 76 1.8 N 2 6 1 3 1023.6 1024.2 0.0
16/08:00pm 9.6 7.2 5.2 74 2.0 SSW 7 11 4 6 1023.5 1024.1 0.0
16/07:30pm 9.5 7.3 5.1 74 2.0 ESE 6 11 3 6 1023.4 1024.0 0.0
16/07:00pm 9.6 8.1 5.0 73 2.1 NW 2 9 1 5 1023.3 1023.9 0.0
16/06:30pm 9.5 7.3 5.1 74 2.0 WSW 6 9 3 5 1023.1 1023.7 0.0
16/06:00pm 9.2 6.5 5.6 78 1.7 SW 9 15 5 8 1022.8 1023.3 0.0
16/05:30pm 9.6 4.8 5.6 76 1.9 W 20 26 11 14 1022.7 1023.2 0.0
16/05:00pm 10.7 6.2 5.9 72 2.3 WSW 19 26 10 14 1022.4 1022.9 0.0
16/04:30pm 11.2 7.5 6.1 71 2.4 SW 15 19 8 10 1022.7 1023.2 0.0
16/04:00pm 11.4 7.3 6.1 70 2.5 WSW 17 20 9 11 1022.7 1023.2 0.0
16/03:30pm 11.6 7.4 5.9 68 2.7 SW 17 24 9 13 1022.5 1023.0 0.0
16/03:00pm 11.8 7.1 5.9 67 2.8 SW 20 26 11 14 1022.5 1023.0 0.0
16/02:30pm 12.0 7.3 5.9 66 2.9 SW 20 26 11 14 1022.4 1022.9 0.0
16/02:00pm 12.0 7.2 5.4 64 3.1 WSW 20 28 11 15 1022.5 1023.0 0.0
16/01:30pm 12.1 7.4 5.9 66 3.0 WSW 20 28 11 15 1022.7 1023.2 0.0
16/01:00pm 12.1 7.3 5.7 65 3.0 WSW 20 28 11 15 1022.8 1023.3 0.0
16/12:30pm 12.1 6.7 6.2 67 2.8 W 24 30 13 16 1023.0 1023.6 0.0
16/12:00pm 12.0 7.1 7.1 72 2.4 WSW 22 30 12 16 1023.3 1023.9 0.0
16/11:30am 11.5 8.6 8.0 79 1.7 WNW 13 22 7 12 1023.7 1024.3 0.0
16/11:00am 10.1 6.8 7.9 86 1.1 NNW 15 19 8 10 1024.2 1024.7 0.0
16/10:30am 9.6 6.7 8.2 91 0.7 N 13 15 7 8 1024.4 1024.9 0.0
16/10:00am 9.3 7.1 7.7 90 0.8 NNW 9 11 5 6 1024.6 1025.1 0.0
16/09:30am 8.9 5.8 7.4 90 0.7 N 13 17 7 9 1024.4 1024.9 0.0
16/09:00am 9.0 7.1 7.5 90 0.7 NNW 7 11 4 6 1024.0 1024.5 0.2
16/08:30am 8.6 6.3 7.4 92 0.6 N 9 11 5 6 1023.7 1024.3 0.2
16/08:00am 8.1 5.7 6.9 92 0.6 N 9 11 5 6 1023.5 1024.1 0.2
16/07:30am 7.9 5.8 6.5 91 0.7 NNW 7 11 4 6 1023.3 1023.9 0.2
16/07:00am 8.2 6.1 6.7 90 0.7 N 7 11 4 6 1023.0 1023.6 0.2
16/06:30am 8.1 5.2 6.4 89 0.8 NNW 11 15 6 8 1022.7 1023.2 0.2
16/06:00am 8.3 5.8 6.6 89 0.8 NNW 9 11 5 6 1022.7 1023.2 0.2
16/05:30am 8.3 5.8 6.4 88 0.9 N 9 11 5 6 1022.3 1022.8 0.2
16/05:00am 8.8 6.9 7.4 91 0.7 WNW 7 11 4 6 1022.3 1022.8 0.2
16/04:30am 8.7 6.7 7.3 91 0.7 W 7 17 4 9 1022.2 1022.7 0.2
16/04:00am 8.4 7.6 6.5 88 0.9 CALM 0 0 0 0 1022.3 1022.8 0.2
16/03:30am 8.4 7.6 6.4 87 0.9 CALM 0 0 0 0 1022.5 1023.0 0.2
16/03:00am 8.7 6.1 6.3 85 1.1 WSW 9 13 5 7 1022.9 1023.4 0.2
16/02:30am 8.7 5.0 6.5 86 1.0 WSW 15 19 8 10 1023.1 1023.7 0.2
16/02:00am 8.7 6.1 6.0 83 1.2 NNW 9 11 5 6 1023.4 1024.0 0.2
16/01:30am 8.6 7.6 5.7 82 1.3 CALM 0 0 0 0 1023.5 1024.1 0.2
16/01:00am 8.9 6.6 5.6 80 1.5 WSW 7 11 4 6 1023.7 1024.3 0.2
16/12:30am 8.9 7.5 5.3 78 1.6 WNW 2 9 1 5 1024.0 1024.5 0.2
16/12:00am 8.7 7.3 5.3 79 1.5 SW 2 9 1 5 1024.3 1024.8 0.2
 
Date/Time
EST
Temp
°C
App
Temp
°C
Dew
Point
°C
Rel
Hum
%
Delta-T
°C
Wind Press
QNH
hPa
Press
MSL
hPa
Rain since
9am
mm
Dir  Spd
km/h
Gust
km/h
Spd
kts
Gust
kts
15/11:30pm 8.8 7.3 5.2 78 1.6 W 2 13 1 7 1024.5 1025.0 0.2
15/11:00pm 8.7 7.6 5.1 78 1.6 CALM 0 0 0 0 1024.5 1025.0 0.2
15/10:30pm 8.5 6.1 5.1 79 1.5 SSW 7 11 4 6 1024.5 1025.0 0.2
15/10:00pm 7.8 6.6 4.7 81 1.4 CALM 0 0 0 0 1024.6 1025.1 0.2
15/09:30pm 7.8 4.1 4.7 81 1.4 SW 13 17 7 9 1024.4 1024.9 0.2
15/09:00pm 8.1 3.7 4.7 79 1.5 WSW 17 20 9 11 1024.2 1024.7 0.2
15/08:30pm 8.5 4.1 4.5 76 1.8 WSW 17 22 9 12 1024.1 1024.6 0.2
15/08:00pm 9.5 5.1 4.9 73 2.1 WSW 17 20 9 11 1024.0 1024.5 0.2
15/07:30pm 9.7 5.3 4.9 72 2.2 WSW 17 20 9 11 1024.0 1024.5 0.2
15/07:00pm 10.2 5.4 4.4 67 2.6 WSW 19 30 10 16 1023.6 1024.2 0.2
15/06:30pm 10.3 6.3 4.7 68 2.6 WSW 15 20 8 11 1023.4 1024.0 0.2
15/06:00pm 10.1 6.8 4.7 69 2.5 WSW 11 15 6 8 1023.2 1023.8 0.2

Other formats

Comma delimited format used in spreadsheet applications
http://www.bom.gov.au/fwo/IDN60801/IDN60801.95721.axf

JavaScript Object Notation format (JSON) in row-major order
http://www.bom.gov.au/fwo/IDN60801/IDN60801.95721.json

Data quality

Most of these data are generated automatically and are frequently updated. Quality checks on data are not normally performed. It is possible for incorrect values to appear. Refer to information at About Latest Weather Observations and please check the disclaimer before using these data.